Ceylon, Ohio
Current Conditions -  °F | °C
As of 4:53 AM on Tuesday 21 Oct 2014 (Local Time) from KPCW Reporting Station
Overcast Overcast  
Wind Chill: 52°   Ceiling: 2100
Heat Index: 52°   Visibility: 10mi
Dew Point: 46°   Wind: 12mph
Humidity: 82%   Direction: 350°N
Pressure: 29.88"   Gusts: NA
Location:  41.3748°N, 82.5554°W
Report Text: KPCW 210853Z AUTO 35010KT 10SM BKN021 OVC027 11/08 A2988 RMK AO2 51011
Loading
Personal Weather Stations






























Interactive Weather Map
Tropical Storm Tracking
New forecast layout! Learn more

10-Day Weather Forecast

Advertisements
Track Severe Weather on mobile